»·PEaware :: N75382 KSAN-KSNA

N75382 :: KSAN-KSNA

FLIGHT INFORMATION

Flight Status: Arrived
Operator: Privately registered:
United States
More flights under this callsign
Pilot: Dean C. (27429)
Aircraft: CESSNA T210 TURBO CENTURION
(T210)
More flights by this aircraft type
Origin: KSAN San Diego Intl-Lindbergh
United States
Destination: KSNA John Wayne-Orange Co
United States
More flights between these airports :: More routes between these airports
Route: OCN V23 SLI
File this flight plan on PilotEdge
Remarks:
Altitude:
(Current/Filed)
8,000ft
Speed:
(Current/Filed)
165kts
Departed: 30-Dec-19 10:43 PM
Arrived: 30-Dec-19 11:18 PM
Distance/Time
Traveled:
66nm/0:35
Distance/Time
To Go:
Arrived

Flight Plot

Page will automatically refresh every two minutes.


Map Options




Map Legend


Flown Route
Filed Route
Departure Airport
Arrival Airport
Navaid (VOR, NDB)
Fix

Horizontal Profiles

Position Reports

Time Latitude Longitude Heading Altitude Ground
Speed
30-Dec-19 22:26 32.732421 -117.176641 193 22ft 0kts
30-Dec-19 22:28 32.732421 -117.176641 193 22ft 0kts
30-Dec-19 22:29 32.732421 -117.176641 193 22ft 0kts
30-Dec-19 22:30 32.732421 -117.176641 193 22ft 0kts
30-Dec-19 22:31 32.732421 -117.176641 193 22ft 0kts
30-Dec-19 22:32 32.732421 -117.176641 193 22ft 0kts
30-Dec-19 22:33 32.732421 -117.176641 193 22ft 0kts
30-Dec-19 22:34 32.732333 -117.176325 149 22ft 0kts
30-Dec-19 22:35 32.732333 -117.176325 149 22ft 0kts
30-Dec-19 22:36 32.732333 -117.176325 149 22ft 0kts
30-Dec-19 22:37 32.732333 -117.176325 149 22ft 0kts
30-Dec-19 22:38 32.732333 -117.176325 149 22ft 0kts
30-Dec-19 22:39 32.732333 -117.176325 149 22ft 0kts
30-Dec-19 22:40 32.731086 -117.175268 154 22ft 12kts
30-Dec-19 22:41 32.730897 -117.175254 199 22ft 0kts
30-Dec-19 22:42 32.730641 -117.175221 187 21ft 14kts
30-Dec-19 22:43 32.732166 -117.184035 286 123ft 81kts
30-Dec-19 22:44 32.743322 -117.209649 318 1250ft 95kts
30-Dec-19 22:45 32.765075 -117.234030 320 1999ft 133kts
30-Dec-19 22:46 32.796990 -117.267866 320 1984ft 164kts
30-Dec-19 22:46 32.825675 -117.298038 320 2079ft 161kts
30-Dec-19 22:48 32.861279 -117.331015 16 3190ft 123kts
30-Dec-19 22:49 32.893664 -117.335593 351 4189ft 117kts
30-Dec-19 22:49 32.920634 -117.342270 352 5036ft 121kts
30-Dec-19 22:50 32.953967 -117.350108 353 5959ft 129kts
30-Dec-19 22:52 33.002899 -117.361417 352 5974ft 165kts
30-Dec-19 22:52 33.040850 -117.370374 352 5973ft 167kts
30-Dec-19 22:53 33.086531 -117.381162 353 5973ft 167kts
30-Dec-19 22:54 33.132312 -117.391972 353 5977ft 167kts
30-Dec-19 22:55 33.177911 -117.402759 353 5982ft 166kts
30-Dec-19 22:56 33.223286 -117.413467 354 5987ft 166kts
30-Dec-19 22:57 33.262079 -117.443995 323 5991ft 175kts
30-Dec-19 22:58 33.294365 -117.487887 302 5994ft 182kts
30-Dec-19 22:59 33.316816 -117.542569 303 5993ft 182kts
30-Dec-19 23:00 33.340087 -117.596500 304 5991ft 182kts
30-Dec-19 23:01 33.363465 -117.650440 304 5992ft 182kts
30-Dec-19 23:02 33.386704 -117.704137 304 5994ft 182kts
30-Dec-19 23:03 33.409963 -117.757962 304 5814ft 182kts
30-Dec-19 23:04 33.432097 -117.809333 305 5088ft 161kts
30-Dec-19 23:05 33.450774 -117.852988 308 4341ft 137kts
30-Dec-19 23:06 33.467555 -117.891895 308 3614ft 128kts
30-Dec-19 23:07 33.483559 -117.929149 307 2995ft 117kts
30-Dec-19 23:08 33.498332 -117.963336 308 3008ft 129kts
30-Dec-19 23:09 33.526006 -117.963386 31 3007ft 114kts
30-Dec-19 23:10 33.550641 -117.947992 32 2777ft 83kts
30-Dec-19 23:11 33.571305 -117.934865 31 2293ft 85kts
30-Dec-19 23:12 33.591881 -117.921853 31 1810ft 83kts
30-Dec-19 23:13 33.612410 -117.908882 30 1359ft 83kts
30-Dec-19 23:14 33.632790 -117.895987 30 890ft 81kts
30-Dec-19 23:15 33.652911 -117.883319 31 424ft 83kts
30-Dec-19 23:16 33.672109 -117.871250 30 79ft 63kts
30-Dec-19 23:17 33.677206 -117.866497 122 60ft 1kts
30-Dec-19 23:18 33.677152 -117.866160 105 60ft 0kts

Navigation Log

Ident Type
Flight plan parsing failed, navigation log unavailable